Time;durP1;ratioP1;P1;durP2;ratioP2;P2;SDS_P1;SDS_P2;PMS_P1;PMS_P2;Temp;Humidity;BMP_temperature;BMP_pressure;BME280_temperature;BME280_humidity;BME280_pressure;Samples;Min_cycle;Max_cycle;Signal;HPM_P1;HPM_P2
2024/02/24 00:02:01;;;;;;;1.03;1.03;;;6.20;99.90;;;;;;5061601;28;20228;-90
2024/02/24 00:04:28;;;;;;;0.40;0.40;;;6.30;99.90;;;;;;5094572;28;20212;-88
2024/02/24 00:06:55;;;;;;;0.50;0.50;;;6.40;99.90;;;;;;5078952;28;20193;-89
2024/02/24 00:09:21;;;;;;;1.20;0.73;;;6.00;99.90;;;;;;5077618;28;20252;-89
2024/02/24 00:11:47;;;;;;;0.40;0.40;;;6.50;99.90;;;;;;5060818;28;20637;-88
2024/02/24 00:14:12;;;;;;;0.50;0.50;;;6.50;99.90;;;;;;5094797;28;20227;-90
2024/02/24 00:16:40;;;;;;;1.63;1.53;;;6.20;99.90;;;;;;5061063;28;20689;-90
2024/02/24 00:19:06;;;;;;;3.50;1.37;;;6.40;99.90;;;;;;5078385;28;20608;-88
2024/02/24 00:21:32;;;;;;;0.70;0.50;;;6.60;99.90;;;;;;5060782;28;20228;-91
2024/02/24 00:23:58;;;;;;;1.73;1.63;;;6.40;99.90;;;;;;5077530;28;20412;-89
2024/02/24 00:26:23;;;;;;;0.50;0.43;;;6.60;99.90;;;;;;5077687;28;20233;-91
2024/02/24 00:28:49;;;;;;;0.20;0.20;;;6.40;99.90;;;;;;5077578;28;20221;-88
2024/02/24 00:31:15;;;;;;;0.87;0.87;;;6.10;99.90;;;;;;5077451;28;20605;-89
2024/02/24 00:33:42;;;;;;;0.93;0.67;;;6.20;99.90;;;;;;5077997;28;20535;-92
2024/02/24 00:36:11;;;;;;;0.87;0.87;;;6.00;99.90;;;;;;5077640;28;20237;-91
2024/02/24 00:38:37;;;;;;;1.23;0.97;;;6.00;99.90;;;;;;5067310;28;20236;-89
2024/02/24 00:41:03;;;;;;;0.73;0.40;;;6.30;99.90;;;;;;5060654;28;20668;-89
2024/02/24 00:43:29;;;;;;;1.90;1.80;;;6.30;99.90;;;;;;5077277;28;20549;-89
2024/02/24 00:45:54;;;;;;;3.00;1.93;;;5.90;99.90;;;;;;5077983;28;20610;-88
2024/02/24 00:48:22;;;;;;;1.00;1.00;;;6.00;99.90;;;;;;5095137;28;20267;-90
2024/02/24 00:50:48;;;;;;;1.60;1.50;;;6.10;99.90;;;;;;5077114;28;20239;-88
2024/02/24 00:53:14;;;;;;;1.17;1.17;;;5.60;99.90;;;;;;5076933;28;20229;-88
2024/02/24 00:55:39;;;;;;;3.40;2.50;;;5.80;99.90;;;;;;5060041;28;20728;-89
2024/02/24 00:58:05;;;;;;;0.80;0.80;;;5.50;99.90;;;;;;5060843;28;20200;-90
2024/02/24 01:00:31;;;;;;;2.20;1.50;;;5.80;99.90;;;;;;5059649;28;20243;-88
2024/02/24 01:02:57;;;;;;;5.53;3.50;;;5.90;99.90;;;;;;5076999;28;20273;-89
2024/02/24 01:05:23;;;;;;;2.47;0.70;;;5.90;99.90;;;;;;5076591;28;20230;-89
2024/02/24 01:07:48;;;;;;;0.80;0.80;;;5.40;99.90;;;;;;5076112;28;20303;-89
2024/02/24 01:10:14;;;;;;;1.10;1.00;;;5.50;99.90;;;;;;5059811;28;20254;-88
2024/02/24 01:12:40;;;;;;;0.57;0.40;;;5.60;99.90;;;;;;5094671;28;20228;-90
2024/02/24 01:15:09;;;;;;;1.63;1.20;;;5.40;99.90;;;;;;5059929;28;20236;-88
2024/02/24 01:17:34;;;;;;;1.33;1.23;;;5.60;99.90;;;;;;5076457;28;20246;-89
2024/02/24 01:20:00;;;;;;;1.97;1.37;;;5.60;99.90;;;;;;5076424;28;20615;-90
2024/02/24 01:22:26;;;;;;;0.80;0.80;;;5.20;99.90;;;;;;5076658;28;20291;-89
2024/02/24 01:24:52;;;;;;;1.60;1.17;;;5.40;99.90;;;;;;5094080;28;20557;-90
2024/02/24 01:27:17;;;;;;;0.77;0.73;;;5.20;99.90;;;;;;5093171;28;20721;-88
2024/02/24 01:29:43;;;;;;;0.80;0.80;;;5.40;99.90;;;;;;5075951;28;20236;-92
2024/02/24 01:32:09;;;;;;;2.10;1.53;;;5.10;99.90;;;;;;5059939;28;20232;-91
2024/02/24 01:34:35;;;;;;;3.43;1.70;;;5.30;99.90;;;;;;5076201;28;20232;-89
2024/02/24 01:37:00;;;;;;;0.50;0.50;;;5.60;99.90;;;;;;5076856;28;20224;-91
2024/02/24 01:39:26;;;;;;;0.70;0.70;;;5.20;99.90;;;;;;5076350;28;20637;-92
2024/02/24 01:41:52;;;;;;;1.03;1.03;;;5.50;99.90;;;;;;5075601;28;20225;-88
2024/02/24 01:44:20;;;;;;;0.87;0.87;;;5.70;99.90;;;;;;5093999;28;20696;-90
2024/02/24 01:46:47;;;;;;;1.67;1.57;;;5.60;99.90;;;;;;5059365;28;20700;-89
2024/02/24 01:49:15;;;;;;;0.57;0.57;;;5.40;99.90;;;;;;5076367;28;20201;-90
2024/02/24 01:51:44;;;;;;;1.90;1.03;;;5.70;99.90;;;;;;5093934;28;20252;-90
2024/02/24 01:54:11;;;;;;;0.97;0.67;;;5.90;99.90;;;;;;5076003;28;20228;-89
2024/02/24 01:56:43;;;;;;;1.13;1.13;;;5.60;99.90;;;;;;5058777;28;20233;-92
2024/02/24 01:59:10;;;;;;;0.70;0.70;;;5.70;99.90;;;;;;5075433;28;20236;-89
2024/02/24 02:01:37;;;;;;;1.00;0.83;;;5.90;99.90;;;;;;5093603;28;20634;-92
2024/02/24 02:04:03;;;;;;;1.33;1.33;;;5.90;99.90;;;;;;5076582;28;20256;-89
2024/02/24 02:06:31;;;;;;;1.60;1.10;;;5.60;99.90;;;;;;5075953;28;20235;-89
2024/02/24 02:08:57;;;;;;;2.10;0.83;;;5.70;99.90;;;;;;5075187;28;20239;-91
2024/02/24 02:11:25;;;;;;;1.67;1.60;;;6.10;99.90;;;;;;5093451;28;20271;-90
2024/02/24 02:13:51;;;;;;;0.93;0.67;;;6.00;99.90;;;;;;5075501;28;20312;-90
2024/02/24 02:16:17;;;;;;;7.00;1.20;;;6.00;99.90;;;;;;5093575;28;20251;-93
2024/02/24 02:18:43;;;;;;;3.00;1.00;;;6.10;99.90;;;;;;5093022;28;20291;-89
2024/02/24 02:21:09;;;;;;;1.57;1.50;;;6.10;99.90;;;;;;5075819;28;20315;-89
2024/02/24 02:23:36;;;;;;;3.43;1.07;;;6.00;99.90;;;;;;5075192;28;20228;-92
2024/02/24 02:26:04;;;;;;;1.67;0.97;;;5.70;99.90;;;;;;5075086;28;20255;-89
2024/02/24 02:28:29;;;;;;;1.43;1.33;;;6.20;99.90;;;;;;5058770;28;20204;-89
2024/02/24 02:30:55;;;;;;;0.47;0.40;;;5.70;99.90;;;;;;5075722;28;20617;-91
2024/02/24 02:33:21;;;;;;;2.40;1.60;;;6.10;99.90;;;;;;5058682;28;20239;-88
2024/02/24 02:35:49;;;;;;;3.63;2.13;;;5.90;99.90;;;;;;5092168;28;20232;-91
2024/02/24 02:38:15;;;;;;;1.13;1.13;;;5.60;99.90;;;;;;5091696;28;20228;-92
2024/02/24 02:40:44;;;;;;;1.03;0.80;;;6.00;99.90;;;;;;5075343;28;20697;-91
2024/02/24 02:43:09;;;;;;;1.70;1.60;;;5.60;99.90;;;;;;5093252;28;20209;-90
2024/02/24 02:45:35;;;;;;;3.10;2.73;;;5.50;99.90;;;;;;5071475;28;20626;-90
2024/02/24 02:48:01;;;;;;;4.33;1.07;;;5.50;99.90;;;;;;5072080;28;20578;-89
2024/02/24 02:50:27;;;;;;;5.40;2.53;;;5.60;99.90;;;;;;5072676;28;20713;-88
2024/02/24 02:52:52;;;;;;;3.70;1.43;;;5.50;99.90;;;;;;5055080;28;20231;-91
2024/02/24 02:55:20;;;;;;;2.40;1.43;;;5.70;99.90;;;;;;5071616;28;20201;-89
2024/02/24 02:57:46;;;;;;;1.30;1.27;;;5.40;99.90;;;;;;5072757;28;20221;-89
2024/02/24 03:00:12;;;;;;;0.33;0.33;;;5.70;99.90;;;;;;5071731;28;20252;-91
2024/02/24 03:02:38;;;;;;;0.90;0.90;;;5.30;99.90;;;;;;5054507;28;20237;-89
2024/02/24 03:05:04;;;;;;;3.20;0.73;;;5.30;99.90;;;;;;5054679;28;20232;-88
2024/02/24 03:07:30;;;;;;;0.77;0.77;;;5.20;99.90;;;;;;5072101;28;20584;-90
2024/02/24 03:09:56;;;;;;;1.63;1.50;;;5.40;99.90;;;;;;5071580;28;20209;-89
2024/02/24 03:12:22;;;;;;;1.33;1.23;;;5.30;99.90;;;;;;5054745;28;20225;-89
2024/02/24 03:14:48;;;;;;;2.93;1.97;;;4.90;99.90;;;;;;5071489;28;20236;-89
2024/02/24 03:17:13;;;;;;;1.13;1.13;;;5.00;99.90;;;;;;5071350;28;20622;-89
2024/02/24 03:19:42;;;;;;;0.90;0.90;;;4.90;99.90;;;;;;5054773;28;20232;-90
2024/02/24 03:22:08;;;;;;;0.73;0.73;;;4.80;99.90;;;;;;5075381;28;20688;-91
2024/02/24 03:24:34;;;;;;;0.90;0.90;;;4.90;99.90;;;;;;5075339;28;20283;-91
2024/02/24 03:27:00;;;;;;;1.53;1.40;;;4.80;99.90;;;;;;5075116;28;20256;-89
2024/02/24 03:29:25;;;;;;;2.27;1.77;;;4.70;99.90;;;;;;5058607;28;20235;-89
2024/02/24 03:31:52;;;;;;;1.10;1.00;;;5.10;99.90;;;;;;5058356;28;20687;-90
2024/02/24 03:34:17;;;;;;;1.97;1.77;;;4.90;99.90;;;;;;5074931;28;20201;-90
2024/02/24 03:36:43;;;;;;;2.00;1.87;;;4.80;99.90;;;;;;5075476;28;20225;-90
2024/02/24 03:39:09;;;;;;;1.67;1.57;;;4.60;99.90;;;;;;5075100;28;20237;-88
2024/02/24 03:41:35;;;;;;;1.43;1.33;;;4.80;99.90;;;;;;5075107;28;20229;-88
2024/02/24 03:44:01;;;;;;;0.90;0.90;;;4.70;99.90;;;;;;5074992;28;20702;-92
2024/02/24 03:46:27;;;;;;;1.40;1.10;;;4.70;99.90;;;;;;5074556;28;20198;-89
2024/02/24 03:48:53;;;;;;;1.33;1.23;;;5.00;99.90;;;;;;5058756;28;20208;-90
2024/02/24 03:51:24;;;;;;;1.07;0.97;;;4.70;99.90;;;;;;5075726;28;20233;-89
2024/02/24 03:53:50;;;;;;;0.53;0.53;;;4.80;99.90;;;;;;5074762;28;20300;-90
2024/02/24 03:56:18;;;;;;;0.97;0.97;;;5.00;99.90;;;;;;5074729;28;20308;-88
2024/02/24 03:58:45;;;;;;;1.90;1.83;;;4.70;99.90;;;;;;5058470;28;20221;-89
2024/02/24 04:01:11;;;;;;;1.07;0.97;;;4.80;99.90;;;;;;5076642;28;20311;-87
2024/02/24 04:03:39;;;;;;;2.77;1.50;;;4.90;99.90;;;;;;5076138;28;20236;-88
2024/02/24 04:06:05;;;;;;;0.83;0.83;;;4.90;99.90;;;;;;5074452;28;20233;-88
2024/02/24 04:08:31;;;;;;;0.63;0.63;;;5.00;99.90;;;;;;5074414;28;20301;-89
2024/02/24 04:10:58;;;;;;;0.50;0.50;;;4.70;99.90;;;;;;5073948;28;20312;-90
2024/02/24 04:13:24;;;;;;;2.10;2.00;;;5.10;99.90;;;;;;5057366;28;20205;-88
2024/02/24 04:15:50;;;;;;;3.80;1.40;;;5.00;99.90;;;;;;5074936;28;20225;-88
2024/02/24 04:18:17;;;;;;;0.80;0.80;;;4.80;99.90;;;;;;5074530;28;20293;-88
2024/02/24 04:20:46;;;;;;;0.73;0.73;;;4.50;99.90;;;;;;5074619;28;20236;-88
2024/02/24 04:23:13;;;;;;;1.70;1.60;;;4.70;99.90;;;;;;5074257;28;20282;-89
2024/02/24 04:25:39;;;;;;;0.80;0.80;;;4.80;99.90;;;;;;5074135;28;20250;-89
2024/02/24 04:28:05;;;;;;;1.43;1.33;;;5.00;99.90;;;;;;5058041;28;20225;-91
2024/02/24 04:30:31;;;;;;;1.43;0.90;;;5.10;99.90;;;;;;5075500;28;20290;-88
2024/02/24 04:32:56;;;;;;;0.47;0.47;;;4.70;99.90;;;;;;5073532;28;20300;-91
2024/02/24 04:35:25;;;;;;;1.23;1.13;;;4.80;99.90;;;;;;5073923;28;20359;-88
2024/02/24 04:37:51;;;;;;;1.13;1.13;;;5.00;99.90;;;;;;5073878;28;20677;-89
2024/02/24 04:40:19;;;;;;;0.87;0.87;;;4.80;99.90;;;;;;5074611;28;20200;-89
2024/02/24 04:42:45;;;;;;;0.93;0.93;;;5.00;99.90;;;;;;5074696;28;20209;-91
2024/02/24 04:45:13;;;;;;;1.07;0.97;;;5.10;99.90;;;;;;5073699;28;20730;-89
2024/02/24 04:47:39;;;;;;;0.30;0.30;;;5.20;99.90;;;;;;5057566;28;20233;-90
2024/02/24 04:50:05;;;;;;;1.03;1.03;;;4.90;99.90;;;;;;5073476;28;20229;-92
2024/02/24 04:52:31;;;;;;;1.70;0.93;;;4.80;99.90;;;;;;5074556;28;20237;-89
2024/02/24 04:54:58;;;;;;;0.90;0.90;;;5.00;99.90;;;;;;5075179;28;20198;-91
2024/02/24 04:57:24;;;;;;;1.40;1.17;;;4.90;99.90;;;;;;5073840;28;20293;-89
2024/02/24 04:59:49;;;;;;;0.40;0.40;;;4.90;99.90;;;;;;5073784;28;20316;-88
2024/02/24 05:02:15;;;;;;;0.80;0.80;;;4.90;99.90;;;;;;5074520;28;20629;-93
2024/02/24 05:04:43;;;;;;;0.40;0.40;;;5.40;99.90;;;;;;5073629;28;20225;-89
2024/02/24 05:07:09;;;;;;;1.53;0.80;;;5.00;99.90;;;;;;5074102;28;20568;-90
2024/02/24 05:09:34;;;;;;;0.83;0.83;;;5.40;99.90;;;;;;5073474;28;20235;-89
2024/02/24 05:12:00;;;;;;;0.87;0.87;;;5.50;99.90;;;;;;5073982;28;20233;-90
2024/02/24 05:14:26;;;;;;;1.83;1.33;;;5.10;99.90;;;;;;5073315;28;20225;-92
2024/02/24 05:16:53;;;;;;;0.73;0.73;;;5.50;99.90;;;;;;5073302;28;20308;-91
2024/02/24 05:19:18;;;;;;;0.67;0.67;;;5.40;99.90;;;;;;5073703;28;20212;-89
2024/02/24 05:21:44;;;;;;;1.17;0.83;;;5.10;99.90;;;;;;5058093;28;20201;-90
2024/02/24 05:24:10;;;;;;;0.67;0.67;;;5.50;99.90;;;;;;5073752;28;20241;-89
2024/02/24 05:26:36;;;;;;;1.17;1.17;;;5.60;99.90;;;;;;5073372;28;20233;-88
2024/02/24 05:29:02;;;;;;;0.70;0.70;;;5.50;99.90;;;;;;5073525;28;20699;-91
2024/02/24 05:31:28;;;;;;;1.20;1.10;;;5.60;99.90;;;;;;5072571;28;20197;-88
2024/02/24 05:33:54;;;;;;;1.27;1.27;;;5.40;99.90;;;;;;5073824;28;20591;-92
2024/02/24 05:36:20;;;;;;;4.97;1.10;;;5.60;99.90;;;;;;5072676;28;20248;-91
2024/02/24 05:38:48;;;;;;;1.23;1.23;;;5.20;99.90;;;;;;5073048;28;20620;-90
2024/02/24 05:41:14;;;;;;;1.40;0.93;;;5.40;99.90;;;;;;5073696;28;20231;-89
2024/02/24 05:43:40;;;;;;;0.53;0.53;;;5.10;99.90;;;;;;5073975;28;20233;-90
2024/02/24 05:46:06;;;;;;;0.40;0.40;;;5.60;99.90;;;;;;5076648;28;20648;-89
2024/02/24 05:48:36;;;;;;;2.47;1.30;;;5.10;99.90;;;;;;5076374;28;20231;-90
2024/02/24 05:51:04;;;;;;;1.03;0.63;;;5.60;99.90;;;;;;5076129;28;20234;-90
2024/02/24 05:53:31;;;;;;;3.00;1.13;;;5.20;99.90;;;;;;5093025;28;20630;-92
2024/02/24 05:55:57;;;;;;;0.90;0.90;;;5.10;99.90;;;;;;5094039;28;20271;-89
2024/02/24 05:58:23;;;;;;;0.63;0.63;;;5.60;99.90;;;;;;5094384;28;20235;-90
2024/02/24 06:00:51;;;;;;;0.80;0.80;;;5.50;99.90;;;;;;5076489;28;20266;-89
2024/02/24 06:03:17;;;;;;;0.63;0.63;;;5.50;99.90;;;;;;5059926;28;20235;-91
2024/02/24 06:05:42;;;;;;;1.70;1.40;;;5.10;99.90;;;;;;5075938;28;20224;-89
2024/02/24 06:08:08;;;;;;;1.50;1.27;;;5.10;99.90;;;;;;5058945;28;20232;-88
2024/02/24 06:10:34;;;;;;;0.40;0.40;;;5.50;99.90;;;;;;5093742;28;20236;-88
2024/02/24 06:13:01;;;;;;;0.73;0.67;;;5.40;99.90;;;;;;5093478;28;20204;-90
2024/02/24 06:15:27;;;;;;;0.80;0.80;;;5.40;99.90;;;;;;5075793;28;20285;-89
2024/02/24 06:17:53;;;;;;;1.30;1.30;;;5.20;99.90;;;;;;5075540;28;20236;-89
2024/02/24 06:20:19;;;;;;;2.03;1.33;;;5.30;99.90;;;;;;5075284;28;20635;-89
2024/02/24 06:22:46;;;;;;;2.87;1.33;;;5.00;99.90;;;;;;5057491;28;20236;-90
2024/02/24 06:25:13;;;;;;;0.77;0.77;;;4.80;99.90;;;;;;5060242;28;20203;-88
2024/02/24 06:27:39;;;;;;;1.17;1.10;;;5.20;99.90;;;;;;5092656;28;20296;-88
2024/02/24 06:30:06;;;;;;;1.43;1.33;;;4.80;99.90;;;;;;5075918;28;20263;-89
2024/02/24 06:32:32;;;;;;;0.60;0.60;;;4.90;99.90;;;;;;5058874;28;20661;-90
2024/02/24 06:34:57;;;;;;;0.77;0.70;;;5.10;99.90;;;;;;5092003;28;20228;-91
2024/02/24 06:37:23;;;;;;;1.10;1.10;;;4.70;99.90;;;;;;5091416;28;20229;-88
2024/02/24 06:39:49;;;;;;;1.10;0.90;;;4.90;99.90;;;;;;5075647;28;20669;-90
2024/02/24 06:42:15;;;;;;;2.00;1.47;;;5.00;99.90;;;;;;5058938;28;20617;-90
2024/02/24 06:44:41;;;;;;;1.13;1.00;;;4.80;99.90;;;;;;5070946;28;20700;-90
2024/02/24 06:47:08;;;;;;;2.30;1.83;;;4.90;99.90;;;;;;5071245;28;20217;-88
2024/02/24 06:49:34;;;;;;;1.63;1.53;;;4.80;99.90;;;;;;5070896;28;20282;-88
2024/02/24 06:52:00;;;;;;;0.43;0.43;;;4.90;99.90;;;;;;5072379;28;20288;-88
2024/02/24 06:54:25;;;;;;;3.93;1.90;;;5.10;99.90;;;;;;5073013;28;20224;-87
2024/02/24 06:56:51;;;;;;;2.97;1.10;;;5.10;99.90;;;;;;5071124;28;20231;-89
2024/02/24 06:59:17;;;;;;;0.63;0.63;;;4.70;99.90;;;;;;5071681;28;20308;-89
2024/02/24 07:01:43;;;;;;;0.73;0.73;;;4.60;99.90;;;;;;5072768;28;20236;-88
2024/02/24 07:04:08;;;;;;;0.63;0.63;;;4.60;99.90;;;;;;5055774;28;20193;-86
2024/02/24 07:06:34;;;;;;;0.87;0.87;;;4.90;99.90;;;;;;5054744;28;20235;-88
2024/02/24 07:09:02;;;;;;;0.87;0.87;;;4.90;99.90;;;;;;5061625;28;20328;-90
2024/02/24 07:11:50;;;;;;;2.13;1.77;;;4.60;99.90;;;;;;5045367;28;20257;-90
2024/02/24 07:14:18;;;;;;;0.30;0.30;;;4.70;99.90;;;;;;5071390;28;20225;-88
2024/02/24 07:16:44;;;;;;;1.20;1.20;;;5.10;99.90;;;;;;5070915;28;20779;-88
2024/02/24 07:19:13;;;;;;;0.63;0.60;;;5.10;99.90;;;;;;5055301;28;20236;-91
2024/02/24 07:21:47;;;;;;;0.73;0.73;;;5.00;99.90;;;;;;5071652;28;20233;-93
2024/02/24 07:24:16;;;;;;;1.20;1.10;;;5.30;99.90;;;;;;5032402;28;20233;-89
2024/02/24 07:26:47;;;;;;;1.00;1.00;;;5.30;99.90;;;;;;5070937;28;20229;-89
2024/02/24 07:29:13;;;;;;;0.53;0.53;;;5.10;99.90;;;;;;5072534;28;20228;-89
2024/02/24 07:31:46;;;;;;;1.10;1.03;;;4.90;99.90;;;;;;5062908;28;20286;-90
2024/02/24 07:34:15;;;;;;;1.47;1.47;;;5.20;99.90;;;;;;5072383;28;20190;-92
2024/02/24 07:36:41;;;;;;;1.33;1.23;;;5.20;99.90;;;;;;5071322;28;20225;-89
2024/02/24 07:39:15;;;;;;;1.30;1.20;;;5.30;99.90;;;;;;5070824;28;20244;-91
2024/02/24 07:41:43;;;;;;;0.90;0.90;;;5.30;99.90;;;;;;5052402;28;20318;-89
2024/02/24 07:44:11;;;;;;;1.37;1.37;;;5.50;99.90;;;;;;5066641;28;20270;-89
2024/02/24 07:46:43;;;;;;;1.03;0.93;;;5.60;99.90;;;;;;5061308;28;20225;-87
2024/02/24 07:49:11;;;;;;;0.70;0.70;;;5.30;99.90;;;;;;5071632;28;20257;-91
2024/02/24 07:51:38;;;;;;;2.20;2.00;;;5.70;99.90;;;;;;5071406;28;20306;-90
2024/02/24 07:54:04;;;;;;;1.23;1.20;;;5.90;99.90;;;;;;5072342;28;20238;-91
2024/02/24 07:56:30;;;;;;;2.40;1.80;;;6.00;99.90;;;;;;5070834;28;20233;-89
2024/02/24 07:58:56;;;;;;;1.00;0.77;;;6.10;99.90;;;;;;5070828;28;20235;-89
2024/02/24 08:01:27;;;;;;;2.90;2.20;;;5.60;99.90;;;;;;5060898;28;20197;-90
2024/02/24 08:03:55;;;;;;;2.27;2.13;;;6.00;99.90;;;;;;5057251;28;20189;-89
2024/02/24 08:06:21;;;;;;;2.20;1.50;;;6.00;99.90;;;;;;5070735;28;20225;-89
2024/02/24 08:08:47;;;;;;;1.30;1.20;;;5.80;99.90;;;;;;5073272;28;20233;-87
2024/02/24 08:11:13;;;;;;;3.23;1.83;;;5.80;99.90;;;;;;5075643;28;20229;-89
2024/02/24 08:13:41;;;;;;;0.57;0.57;;;6.00;99.90;;;;;;5073897;28;20228;-90
2024/02/24 08:16:08;;;;;;;3.50;1.70;;;6.40;99.90;;;;;;5076039;28;20260;-90
2024/02/24 08:18:35;;;;;;;0.97;0.93;;;6.20;99.90;;;;;;5074031;28;20237;-88
2024/02/24 08:21:08;;;;;;;2.67;2.47;;;6.10;99.90;;;;;;5073859;28;20236;-89
2024/02/24 08:23:34;;;;;;;1.43;1.33;;;6.20;99.90;;;;;;5075209;28;20240;-90
2024/02/24 08:26:03;;;;;;;1.13;0.87;;;6.30;99.90;;;;;;5074280;28;20277;-88
2024/02/24 08:28:29;;;;;;;1.70;1.60;;;6.40;99.90;;;;;;5058426;28;20201;-90
2024/02/24 08:30:56;;;;;;;3.37;1.80;;;6.30;99.90;;;;;;5058244;28;20201;-91
2024/02/24 08:33:22;;;;;;;0.63;0.63;;;6.10;99.90;;;;;;5073785;28;20709;-89
2024/02/24 08:35:50;;;;;;;0.80;0.80;;;6.30;99.90;;;;;;5057407;28;20232;-90
2024/02/24 08:38:16;;;;;;;1.07;0.70;;;6.20;99.90;;;;;;5057451;28;20224;-89
2024/02/24 08:40:45;;;;;;;2.17;2.00;;;6.30;99.90;;;;;;5074114;28;20221;-89
2024/02/24 08:43:14;;;;;;;1.50;1.27;;;6.30;99.90;;;;;;5074050;28;20201;-89
2024/02/24 08:45:43;;;;;;;1.20;1.00;;;6.30;99.90;;;;;;5073869;28;20699;-90
2024/02/24 08:48:12;;;;;;;3.47;1.97;;;6.60;99.90;;;;;;5073659;28;20648;-91
2024/02/24 08:50:39;;;;;;;1.63;1.53;;;6.70;99.90;;;;;;5074027;28;20225;-88
2024/02/24 08:53:05;;;;;;;2.03;1.93;;;6.50;99.90;;;;;;5073652;28;20312;-88
2024/02/24 08:55:31;;;;;;;2.27;2.17;;;6.20;99.90;;;;;;5073598;28;20201;-88
2024/02/24 08:57:59;;;;;;;1.73;1.50;;;6.40;99.90;;;;;;5074199;28;20217;-89
2024/02/24 09:00:25;;;;;;;1.50;1.43;;;6.20;99.90;;;;;;5073777;28;20228;-92
2024/02/24 09:02:51;;;;;;;1.10;1.07;;;6.50;99.90;;;;;;5073501;28;20244;-89
2024/02/24 09:05:19;;;;;;;3.93;2.27;;;6.30;99.90;;;;;;5073457;28;20708;-94
2024/02/24 09:07:47;;;;;;;1.87;1.43;;;6.40;99.90;;;;;;5073623;28;20300;-87
2024/02/24 09:10:13;;;;;;;2.43;1.27;;;6.20;99.90;;;;;;5074140;28;20205;-88
2024/02/24 09:12:39;;;;;;;1.57;1.47;;;6.50;99.90;;;;;;5072971;28;20240;-85
2024/02/24 09:15:06;;;;;;;2.30;1.87;;;6.40;99.90;;;;;;5072832;28;20585;-90
2024/02/24 09:17:32;;;;;;;3.00;1.67;;;6.50;99.90;;;;;;5055592;28;20233;-91
2024/02/24 09:19:57;;;;;;;1.77;1.43;;;6.70;99.90;;;;;;5071957;28;20231;-88
2024/02/24 09:22:23;;;;;;;1.10;1.10;;;6.80;99.90;;;;;;5072689;28;20235;-91
2024/02/24 09:24:49;;;;;;;1.60;1.30;;;6.80;99.90;;;;;;5073364;28;20730;-88
2024/02/24 09:27:15;;;;;;;1.23;1.20;;;7.00;99.90;;;;;;5072537;28;20255;-90
2024/02/24 09:29:40;;;;;;;2.73;1.47;;;7.00;99.90;;;;;;5072789;28;20233;-89
2024/02/24 09:32:06;;;;;;;2.50;2.30;;;7.30;99.90;;;;;;5072218;28;20677;-88
2024/02/24 09:34:32;;;;;;;2.23;2.03;;;7.40;99.90;;;;;;5072467;28;20240;-87
2024/02/24 09:37:01;;;;;;;1.23;1.23;;;7.30;99.90;;;;;;5056278;28;20217;-86
2024/02/24 09:39:27;;;;;;;2.40;2.30;;;7.00;99.90;;;;;;5071952;28;20236;-88
2024/02/24 09:41:53;;;;;;;2.10;1.93;;;7.00;99.90;;;;;;5072032;28;20229;-87
2024/02/24 09:44:18;;;;;;;1.97;1.87;;;7.30;99.90;;;;;;5077704;28;20232;-87
2024/02/24 09:46:44;;;;;;;4.33;2.67;;;7.20;99.90;;;;;;5075662;28;20269;-86
2024/02/24 09:49:12;;;;;;;1.80;1.70;;;7.20;99.90;;;;;;5075065;28;20204;-91
2024/02/24 09:51:43;;;;;;;1.67;1.60;;;7.30;99.90;;;;;;5059334;28;20197;-87
2024/02/24 09:54:09;;;;;;;1.57;1.47;;;7.10;99.90;;;;;;5076429;28;20236;-90
2024/02/24 09:56:38;;;;;;;2.70;2.50;;;7.20;99.90;;;;;;5075330;28;20228;-88
2024/02/24 09:59:05;;;;;;;1.83;1.20;;;7.10;99.90;;;;;;5074775;28;20787;-87
2024/02/24 10:01:36;;;;;;;2.27;2.17;;;7.20;99.90;;;;;;5075630;28;20370;-90
2024/02/24 10:04:03;;;;;;;3.13;1.53;;;7.20;99.90;;;;;;5058718;28;20192;-91
2024/02/24 10:06:28;;;;;;;4.40;1.83;;;7.10;99.90;;;;;;5059248;28;20193;-88
2024/02/24 10:08:54;;;;;;;2.40;1.30;;;7.00;99.90;;;;;;5074441;28;20585;-90
2024/02/24 10:11:20;;;;;;;4.23;1.17;;;7.10;99.90;;;;;;5058319;28;20232;-86
2024/02/24 10:13:46;;;;;;;6.73;3.97;;;7.20;99.90;;;;;;5057965;28;20703;-88
2024/02/24 10:16:12;;;;;;;2.00;1.90;;;7.10;99.90;;;;;;5074615;28;20224;-87
2024/02/24 10:18:42;;;;;;;2.63;2.43;;;7.20;99.90;;;;;;5075248;28;20197;-89
2024/02/24 10:21:07;;;;;;;1.20;1.20;;;7.20;99.90;;;;;;5074899;28;20228;-90
2024/02/24 10:23:33;;;;;;;1.73;1.17;;;7.10;99.90;;;;;;5091746;28;20220;-87
2024/02/24 10:25:59;;;;;;;2.20;1.80;;;7.20;99.90;;;;;;5074588;28;20361;-89
2024/02/24 10:28:29;;;;;;;11.97;1.47;;;7.10;99.90;;;;;;5091166;28;20236;-87
2024/02/24 10:30:55;;;;;;;1.67;1.47;;;7.20;99.90;;;;;;5091260;28;20269;-88
2024/02/24 10:33:23;;;;;;;1.50;1.40;;;7.30;99.90;;;;;;5074403;28;20256;-88
2024/02/24 10:35:50;;;;;;;1.50;1.40;;;7.10;99.90;;;;;;5092514;28;20323;-88
2024/02/24 10:38:16;;;;;;;3.00;1.83;;;7.20;99.90;;;;;;5069729;28;20302;-88
2024/02/24 10:40:42;;;;;;;1.67;1.57;;;7.30;99.90;;;;;;5068795;28;20236;-89
2024/02/24 10:43:27;;;;;;;2.40;2.27;;;7.50;99.90;;;;;;5074448;28;20205;-88
2024/02/24 10:45:53;;;;;;;5.90;2.20;;;7.60;99.90;;;;;;5091627;28;20243;-86
2024/02/24 10:48:20;;;;;;;1.87;1.77;;;7.70;99.90;;;;;;5091988;28;20240;-85
2024/02/24 10:50:46;;;;;;;3.53;3.13;;;7.70;99.90;;;;;;5074412;28;20303;-85
2024/02/24 10:53:16;;;;;;;2.77;2.47;;;7.90;99.90;;;;;;5074236;28;20232;-86
2024/02/24 10:55:43;;;;;;;4.13;2.40;;;7.80;99.90;;;;;;5074559;28;20239;-88
2024/02/24 10:58:09;;;;;;;3.23;2.60;;;7.80;99.90;;;;;;5074365;28;20592;-86
2024/02/24 11:00:35;;;;;;;5.47;3.60;;;7.90;99.90;;;;;;5058333;28;20656;-86
2024/02/24 11:03:04;;;;;;;2.97;1.23;;;7.90;99.90;;;;;;5073798;28;20228;-88
2024/02/24 11:05:31;;;;;;;1.90;1.23;;;7.90;99.90;;;;;;5074660;28;20228;-87
2024/02/24 11:07:57;;;;;;;3.20;2.20;;;8.00;99.90;;;;;;5074663;28;20274;-88
2024/02/24 11:10:30;;;;;;;3.60;2.90;;;8.10;99.90;;;;;;5091089;28;20231;-87
2024/02/24 11:12:56;;;;;;;3.90;3.47;;;8.20;99.90;;;;;;5093037;28;20705;-88
2024/02/24 11:15:27;;;;;;;3.53;2.60;;;8.30;99.90;;;;;;5090888;28;20224;-88
2024/02/24 11:17:56;;;;;;;2.17;1.97;;;8.20;99.90;;;;;;5092242;28;20240;-88
2024/02/24 11:20:34;;;;;;;4.30;3.40;;;8.30;99.90;;;;;;5074329;28;20603;-90
2024/02/24 11:23:22;;;;;;;3.37;3.07;;;8.30;99.90;;;;;;5092155;28;20289;-88
2024/02/24 11:26:08;;;;;;;2.37;1.50;;;8.30;99.90;;;;;;5091493;28;20228;-89
2024/02/24 11:28:35;;;;;;;4.00;2.70;;;8.50;99.90;;;;;;5077346;28;20246;-88
2024/02/24 11:31:02;;;;;;;4.43;3.10;;;8.40;99.90;;;;;;5074478;28;20552;-89
2024/02/24 11:33:32;;;;;;;3.00;2.43;;;8.30;99.90;;;;;;5092588;28;20283;-90
2024/02/24 11:36:00;;;;;;;2.07;1.87;;;8.30;99.90;;;;;;5057910;28;20233;-89
2024/02/24 11:38:26;;;;;;;3.10;2.67;;;8.30;99.90;;;;;;5057895;28;20225;-88
2024/02/24 11:40:53;;;;;;;2.03;1.87;;;8.40;99.90;;;;;;5057912;28;20232;-90
2024/02/24 11:43:21;;;;;;;3.80;2.43;;;8.40;99.90;;;;;;5096001;28;20511;-89
2024/02/24 11:45:53;;;;;;;3.60;2.37;;;8.50;99.90;;;;;;5061501;28;20261;-87
2024/02/24 11:48:19;;;;;;;2.80;1.57;;;8.50;99.90;;;;;;5061454;28;20235;-89
2024/02/24 11:50:46;;;;;;;3.13;2.83;;;8.40;99.90;;;;;;5095610;28;20625;-88
2024/02/24 11:53:14;;;;;;;6.70;2.27;;;8.50;99.90;;;;;;5077196;28;20320;-89
2024/02/24 11:55:40;;;;;;;2.53;1.53;;;8.60;99.90;;;;;;5095193;28;20764;-89
2024/02/24 11:58:09;;;;;;;2.43;2.33;;;8.60;99.90;;;;;;5076778;28;20303;-89
2024/02/24 12:00:39;;;;;;;2.87;2.53;;;8.40;99.90;;;;;;5061372;28;20208;-89
2024/02/24 12:03:13;;;;;;;3.47;3.17;;;8.70;99.90;;;;;;5077018;28;20266;-89
2024/02/24 12:05:39;;;;;;;4.43;2.00;;;8.80;99.90;;;;;;5077243;28;20228;-89
2024/02/24 12:08:11;;;;;;;1.87;1.13;;;8.60;99.90;;;;;;5060530;28;20225;-89
2024/02/24 12:10:38;;;;;;;1.50;1.40;;;8.40;99.90;;;;;;5076730;28;20748;-89
2024/02/24 12:13:09;;;;;;;1.83;1.70;;;8.30;99.90;;;;;;5076780;28;20196;-89
2024/02/24 12:15:44;;;;;;;1.97;1.10;;;8.40;99.90;;;;;;5077263;28;20201;-88
2024/02/24 12:18:13;;;;;;;4.03;2.13;;;8.20;99.90;;;;;;5077049;28;20667;-91
2024/02/24 12:20:42;;;;;;;2.23;2.03;;;8.40;99.90;;;;;;5077702;28;20241;-90
2024/02/24 12:23:09;;;;;;;0.93;0.83;;;8.50;99.90;;;;;;5076666;28;20236;-91
2024/02/24 12:25:36;;;;;;;1.57;1.43;;;8.60;99.90;;;;;;5094685;28;20239;-89
2024/02/24 12:28:03;;;;;;;1.97;1.87;;;8.70;99.90;;;;;;5093534;28;20201;-88
2024/02/24 12:30:46;;;;;;;0.77;0.77;;;8.90;99.90;;;;;;5078058;28;20260;-89
2024/02/24 12:33:14;;;;;;;1.93;1.83;;;8.90;99.90;;;;;;5060324;28;20236;-90
2024/02/24 12:35:43;;;;;;;1.73;1.63;;;9.00;99.90;;;;;;5094760;28;20294;-89
2024/02/24 12:38:20;;;;;;;0.83;0.83;;;9.20;99.90;;;;;;5060476;28;20233;-90
2024/02/24 12:40:46;;;;;;;1.60;1.50;;;9.50;99.90;;;;;;5060746;28;20680;-90
2024/02/24 12:43:12;;;;;;;0.73;0.73;;;9.50;99.90;;;;;;5094506;28;20216;-89
2024/02/24 12:45:41;;;;;;;7.43;2.00;;;9.30;99.90;;;;;;5094906;28;20753;-89
2024/02/24 12:48:07;;;;;;;2.13;1.03;;;9.30;99.90;;;;;;5076369;28;20238;-88
2024/02/24 12:50:32;;;;;;;2.70;2.50;;;9.40;99.90;;;;;;5076652;28;20255;-90
2024/02/24 12:52:58;;;;;;;1.77;0.90;;;9.50;99.90;;;;;;5075637;28;20621;-88
2024/02/24 12:55:24;;;;;;;1.47;1.23;;;9.40;99.90;;;;;;5076158;28;20243;-90
2024/02/24 12:57:50;;;;;;;1.70;1.23;;;9.20;99.90;;;;;;5060456;28;20220;-89